sensor_id;sensor_type;location;lat;lon;timestamp;temperature;humidity
20504;DHT22;10410;51.046;6.980;2023-12-04T00:05:27;0.30;99.90
20504;DHT22;10410;51.046;6.980;2023-12-04T00:12:27;0.30;99.90
20504;DHT22;10410;51.046;6.980;2023-12-04T00:19:28;0.30;99.90
20504;DHT22;10410;51.046;6.980;2023-12-04T00:26:30;0.30;99.90
20504;DHT22;10410;51.046;6.980;2023-12-04T00:33:30;0.40;99.90
20504;DHT22;10410;51.046;6.980;2023-12-04T00:40:31;0.40;99.90
20504;DHT22;10410;51.046;6.980;2023-12-04T00:47:32;0.40;99.90
20504;DHT22;10410;51.046;6.980;2023-12-04T00:54:32;0.40;99.90
20504;DHT22;10410;51.046;6.980;2023-12-04T01:01:33;0.40;99.90
20504;DHT22;10410;51.046;6.980;2023-12-04T01:08:33;0.40;99.90
20504;DHT22;10410;51.046;6.980;2023-12-04T01:15:34;0.40;99.90
20504;DHT22;10410;51.046;6.980;2023-12-04T01:22:34;0.40;99.90
20504;DHT22;10410;51.046;6.980;2023-12-04T01:29:35;0.30;99.90
20504;DHT22;10410;51.046;6.980;2023-12-04T01:36:35;0.30;99.90
20504;DHT22;10410;51.046;6.980;2023-12-04T01:43:36;0.30;99.90
20504;DHT22;10410;51.046;6.980;2023-12-04T01:50:37;0.30;99.90
20504;DHT22;10410;51.046;6.980;2023-12-04T01:57:38;0.30;99.90
20504;DHT22;10410;51.046;6.980;2023-12-04T02:04:39;0.30;99.90
20504;DHT22;10410;51.046;6.980;2023-12-04T02:11:40;0.30;99.90
20504;DHT22;10410;51.046;6.980;2023-12-04T02:18:40;0.30;99.90
20504;DHT22;10410;51.046;6.980;2023-12-04T02:25:41;0.30;99.90
20504;DHT22;10410;51.046;6.980;2023-12-04T02:32:46;0.30;99.90
20504;DHT22;10410;51.046;6.980;2023-12-04T02:39:47;0.30;99.90
20504;DHT22;10410;51.046;6.980;2023-12-04T02:46:50;0.30;99.90
20504;DHT22;10410;51.046;6.980;2023-12-04T02:53:50;0.30;99.90
20504;DHT22;10410;51.046;6.980;2023-12-04T03:00:51;0.40;99.90
20504;DHT22;10410;51.046;6.980;2023-12-04T03:07:51;0.40;99.90
20504;DHT22;10410;51.046;6.980;2023-12-04T03:14:52;0.40;99.90
20504;DHT22;10410;51.046;6.980;2023-12-04T03:21:52;0.40;99.90
20504;DHT22;10410;51.046;6.980;2023-12-04T03:28:52;0.40;99.90
20504;DHT22;10410;51.046;6.980;2023-12-04T03:35:53;0.30;99.90
20504;DHT22;10410;51.046;6.980;2023-12-04T03:42:53;0.40;99.90
20504;DHT22;10410;51.046;6.980;2023-12-04T03:49:54;0.40;99.90
20504;DHT22;10410;51.046;6.980;2023-12-04T03:56:55;0.40;99.90
20504;DHT22;10410;51.046;6.980;2023-12-04T04:03:55;0.40;99.90
20504;DHT22;10410;51.046;6.980;2023-12-04T04:10:56;0.40;99.90
20504;DHT22;10410;51.046;6.980;2023-12-04T04:17:56;0.40;99.90
20504;DHT22;10410;51.046;6.980;2023-12-04T04:24:57;0.40;99.90
20504;DHT22;10410;51.046;6.980;2023-12-04T04:31:58;0.50;99.90
20504;DHT22;10410;51.046;6.980;2023-12-04T04:38:58;0.50;99.90
20504;DHT22;10410;51.046;6.980;2023-12-04T04:45:59;0.50;99.90
20504;DHT22;10410;51.046;6.980;2023-12-04T04:52:59;0.40;99.90
20504;DHT22;10410;51.046;6.980;2023-12-04T05:00:00;0.40;99.90
20504;DHT22;10410;51.046;6.980;2023-12-04T05:07:00;0.40;99.90
20504;DHT22;10410;51.046;6.980;2023-12-04T05:14:01;0.40;99.90
20504;DHT22;10410;51.046;6.980;2023-12-04T05:21:01;0.40;99.90
20504;DHT22;10410;51.046;6.980;2023-12-04T05:28:04;0.40;99.90
20504;DHT22;10410;51.046;6.980;2023-12-04T05:35:05;0.40;99.90
20504;DHT22;10410;51.046;6.980;2023-12-04T05:42:06;0.30;99.90
20504;DHT22;10410;51.046;6.980;2023-12-04T05:49:06;0.40;99.90
20504;DHT22;10410;51.046;6.980;2023-12-04T05:56:08;0.40;99.90
20504;DHT22;10410;51.046;6.980;2023-12-04T06:03:09;0.50;99.90
20504;DHT22;10410;51.046;6.980;2023-12-04T06:10:10;0.50;99.90
20504;DHT22;10410;51.046;6.980;2023-12-04T06:17:10;0.40;99.90
20504;DHT22;10410;51.046;6.980;2023-12-04T06:24:11;0.40;99.90
20504;DHT22;10410;51.046;6.980;2023-12-04T06:31:12;0.40;99.90
20504;DHT22;10410;51.046;6.980;2023-12-04T06:38:15;0.30;99.90
20504;DHT22;10410;51.046;6.980;2023-12-04T06:45:16;0.40;99.90
20504;DHT22;10410;51.046;6.980;2023-12-04T06:52:17;0.30;99.90
20504;DHT22;10410;51.046;6.980;2023-12-04T06:59:18;0.30;99.90
20504;DHT22;10410;51.046;6.980;2023-12-04T07:06:18;0.30;99.90
20504;DHT22;10410;51.046;6.980;2023-12-04T07:13:18;0.30;99.90
20504;DHT22;10410;51.046;6.980;2023-12-04T07:20:19;0.30;99.90
20504;DHT22;10410;51.046;6.980;2023-12-04T07:27:20;0.40;99.90
20504;DHT22;10410;51.046;6.980;2023-12-04T07:34:20;0.40;99.90
20504;DHT22;10410;51.046;6.980;2023-12-04T07:41:22;0.50;99.90
20504;DHT22;10410;51.046;6.980;2023-12-04T07:48:22;0.60;99.90
20504;DHT22;10410;51.046;6.980;2023-12-04T07:55:22;0.70;99.90
20504;DHT22;10410;51.046;6.980;2023-12-04T08:02:23;0.80;99.90
20504;DHT22;10410;51.046;6.980;2023-12-04T08:09:23;0.90;99.90
20504;DHT22;10410;51.046;6.980;2023-12-04T08:16:24;0.90;99.90
20504;DHT22;10410;51.046;6.980;2023-12-04T08:23:24;1.00;99.90
20504;DHT22;10410;51.046;6.980;2023-12-04T08:30:24;1.00;99.90
20504;DHT22;10410;51.046;6.980;2023-12-04T08:37:27;1.10;99.90
20504;DHT22;10410;51.046;6.980;2023-12-04T08:44:27;1.10;99.90
20504;DHT22;10410;51.046;6.980;2023-12-04T08:51:28;1.10;99.90
20504;DHT22;10410;51.046;6.980;2023-12-04T08:58:28;1.10;99.90
20504;DHT22;10410;51.046;6.980;2023-12-04T09:05:29;1.10;99.90
20504;DHT22;10410;51.046;6.980;2023-12-04T09:12:30;1.10;99.90
20504;DHT22;10410;51.046;6.980;2023-12-04T09:19:31;1.20;99.90
20504;DHT22;10410;51.046;6.980;2023-12-04T09:26:32;1.20;99.90
20504;DHT22;10410;51.046;6.980;2023-12-04T09:33:33;1.30;99.90
20504;DHT22;10410;51.046;6.980;2023-12-04T09:40:34;1.40;99.90
20504;DHT22;10410;51.046;6.980;2023-12-04T09:47:35;1.40;99.90
20504;DHT22;10410;51.046;6.980;2023-12-04T09:54:37;1.40;99.90
20504;DHT22;10410;51.046;6.980;2023-12-04T10:01:40;1.40;99.90
20504;DHT22;10410;51.046;6.980;2023-12-04T10:08:41;1.50;99.90
20504;DHT22;10410;51.046;6.980;2023-12-04T10:15:49;1.50;99.90
20504;DHT22;10410;51.046;6.980;2023-12-04T10:22:57;1.60;99.90
20504;DHT22;10410;51.046;6.980;2023-12-04T10:29:58;1.70;99.90
20504;DHT22;10410;51.046;6.980;2023-12-04T10:36:58;1.70;99.90
20504;DHT22;10410;51.046;6.980;2023-12-04T10:44:00;1.70;99.90
20504;DHT22;10410;51.046;6.980;2023-12-04T10:51:12;1.80;99.90
20504;DHT22;10410;51.046;6.980;2023-12-04T10:58:14;1.80;99.90
20504;DHT22;10410;51.046;6.980;2023-12-04T11:05:16;1.80;99.90
20504;DHT22;10410;51.046;6.980;2023-12-04T11:12:21;1.80;99.90
20504;DHT22;10410;51.046;6.980;2023-12-04T11:19:47;1.70;99.90
20504;DHT22;10410;51.046;6.980;2023-12-04T11:26:50;1.60;99.90
20504;DHT22;10410;51.046;6.980;2023-12-04T11:33:51;1.60;99.90
20504;DHT22;10410;51.046;6.980;2023-12-04T11:40:52;1.50;99.90
20504;DHT22;10410;51.046;6.980;2023-12-04T11:47:57;1.40;99.90
20504;DHT22;10410;51.046;6.980;2023-12-04T11:55:03;1.40;99.90
20504;DHT22;10410;51.046;6.980;2023-12-04T12:02:10;1.50;99.90
20504;DHT22;10410;51.046;6.980;2023-12-04T12:09:11;1.40;99.90
20504;DHT22;10410;51.046;6.980;2023-12-04T12:16:11;1.40;99.90
20504;DHT22;10410;51.046;6.980;2023-12-04T12:23:12;1.30;99.90
20504;DHT22;10410;51.046;6.980;2023-12-04T12:30:13;1.40;99.90
20504;DHT22;10410;51.046;6.980;2023-12-04T12:37:15;1.40;99.90
20504;DHT22;10410;51.046;6.980;2023-12-04T12:44:15;1.40;99.90
20504;DHT22;10410;51.046;6.980;2023-12-04T12:51:18;1.30;99.90
20504;DHT22;10410;51.046;6.980;2023-12-04T12:58:19;1.20;99.90
20504;DHT22;10410;51.046;6.980;2023-12-04T13:05:22;1.20;99.90
20504;DHT22;10410;51.046;6.980;2023-12-04T13:12:22;1.20;99.90
20504;DHT22;10410;51.046;6.980;2023-12-04T13:19:23;1.20;99.90
20504;DHT22;10410;51.046;6.980;2023-12-04T13:26:26;1.30;99.90
20504;DHT22;10410;51.046;6.980;2023-12-04T13:33:27;1.30;99.90
20504;DHT22;10410;51.046;6.980;2023-12-04T13:40:28;1.40;99.90
20504;DHT22;10410;51.046;6.980;2023-12-04T13:47:32;1.30;99.90
20504;DHT22;10410;51.046;6.980;2023-12-04T13:54:35;1.40;99.90
20504;DHT22;10410;51.046;6.980;2023-12-04T14:01:46;1.40;99.90
20504;DHT22;10410;51.046;6.980;2023-12-04T14:08:47;1.40;99.90
20504;DHT22;10410;51.046;6.980;2023-12-04T14:15:47;1.40;99.90
20504;DHT22;10410;51.046;6.980;2023-12-04T14:22:48;1.50;99.90
20504;DHT22;10410;51.046;6.980;2023-12-04T14:29:48;1.50;99.90
20504;DHT22;10410;51.046;6.980;2023-12-04T14:36:49;1.50;99.90
20504;DHT22;10410;51.046;6.980;2023-12-04T14:43:49;1.60;99.90
20504;DHT22;10410;51.046;6.980;2023-12-04T14:50:49;1.60;99.90
20504;DHT22;10410;51.046;6.980;2023-12-04T14:57:53;1.60;99.90
20504;DHT22;10410;51.046;6.980;2023-12-04T15:05:32;1.70;99.90
20504;DHT22;10410;51.046;6.980;2023-12-04T15:12:59;1.70;99.90
20504;DHT22;10410;51.046;6.980;2023-12-04T15:20:18;1.70;99.90
20504;DHT22;10410;51.046;6.980;2023-12-04T15:27:39;1.70;99.90
20504;DHT22;10410;51.046;6.980;2023-12-04T15:34:41;1.80;99.90
20504;DHT22;10410;51.046;6.980;2023-12-04T15:41:41;1.70;99.90
20504;DHT22;10410;51.046;6.980;2023-12-04T15:48:42;1.70;99.90
20504;DHT22;10410;51.046;6.980;2023-12-04T15:55:43;1.50;99.90
20504;DHT22;10410;51.046;6.980;2023-12-04T16:02:43;1.40;99.90
20504;DHT22;10410;51.046;6.980;2023-12-04T16:09:44;1.40;99.90
20504;DHT22;10410;51.046;6.980;2023-12-04T16:16:44;1.30;99.90
20504;DHT22;10410;51.046;6.980;2023-12-04T16:23:45;1.30;99.90
20504;DHT22;10410;51.046;6.980;2023-12-04T16:30:45;1.30;99.90
20504;DHT22;10410;51.046;6.980;2023-12-04T16:37:46;1.40;99.90
20504;DHT22;10410;51.046;6.980;2023-12-04T16:44:47;1.50;99.90
20504;DHT22;10410;51.046;6.980;2023-12-04T16:51:49;1.60;99.90
20504;DHT22;10410;51.046;6.980;2023-12-04T16:58:49;1.60;99.90
20504;DHT22;10410;51.046;6.980;2023-12-04T17:05:50;1.60;99.90
20504;DHT22;10410;51.046;6.980;2023-12-04T17:12:51;1.70;99.90
20504;DHT22;10410;51.046;6.980;2023-12-04T17:19:53;1.70;99.90
20504;DHT22;10410;51.046;6.980;2023-12-04T17:26:53;1.70;99.90
20504;DHT22;10410;51.046;6.980;2023-12-04T17:33:54;1.70;99.90
20504;DHT22;10410;51.046;6.980;2023-12-04T17:40:55;1.80;99.90
20504;DHT22;10410;51.046;6.980;2023-12-04T17:47:56;1.80;99.90
20504;DHT22;10410;51.046;6.980;2023-12-04T17:54:57;1.80;99.90
20504;DHT22;10410;51.046;6.980;2023-12-04T18:01:57;1.70;99.90
20504;DHT22;10410;51.046;6.980;2023-12-04T18:08:58;1.70;99.90
20504;DHT22;10410;51.046;6.980;2023-12-04T18:15:58;1.70;99.90
20504;DHT22;10410;51.046;6.980;2023-12-04T18:22:59;1.70;99.90
20504;DHT22;10410;51.046;6.980;2023-12-04T18:30:00;1.70;99.90
20504;DHT22;10410;51.046;6.980;2023-12-04T18:37:10;1.70;99.90
20504;DHT22;10410;51.046;6.980;2023-12-04T18:44:13;1.70;99.90
20504;DHT22;10410;51.046;6.980;2023-12-04T18:51:14;1.70;99.90
20504;DHT22;10410;51.046;6.980;2023-12-04T18:58:17;1.80;99.90
20504;DHT22;10410;51.046;6.980;2023-12-04T19:05:18;1.80;99.90
20504;DHT22;10410;51.046;6.980;2023-12-04T19:12:19;1.90;99.90
20504;DHT22;10410;51.046;6.980;2023-12-04T19:19:20;1.90;99.90
20504;DHT22;10410;51.046;6.980;2023-12-04T19:26:21;1.90;99.90
20504;DHT22;10410;51.046;6.980;2023-12-04T19:33:21;2.00;99.90
20504;DHT22;10410;51.046;6.980;2023-12-04T19:40:29;2.00;99.90
20504;DHT22;10410;51.046;6.980;2023-12-04T19:47:30;2.00;99.90
20504;DHT22;10410;51.046;6.980;2023-12-04T19:54:30;2.10;99.90
20504;DHT22;10410;51.046;6.980;2023-12-04T20:01:30;2.10;99.90
20504;DHT22;10410;51.046;6.980;2023-12-04T20:08:31;2.20;99.90
20504;DHT22;10410;51.046;6.980;2023-12-04T20:15:31;2.20;99.90
20504;DHT22;10410;51.046;6.980;2023-12-04T20:22:32;2.20;99.90
20504;DHT22;10410;51.046;6.980;2023-12-04T20:29:32;2.30;99.90
20504;DHT22;10410;51.046;6.980;2023-12-04T20:36:33;2.30;99.90
20504;DHT22;10410;51.046;6.980;2023-12-04T20:43:34;2.40;99.90
20504;DHT22;10410;51.046;6.980;2023-12-04T20:50:36;2.40;99.90
20504;DHT22;10410;51.046;6.980;2023-12-04T20:57:36;2.40;99.90
20504;DHT22;10410;51.046;6.980;2023-12-04T21:04:37;2.50;99.90
20504;DHT22;10410;51.046;6.980;2023-12-04T21:11:37;2.50;99.90
20504;DHT22;10410;51.046;6.980;2023-12-04T21:18:37;2.50;99.90
20504;DHT22;10410;51.046;6.980;2023-12-04T21:25:39;2.50;99.90
20504;DHT22;10410;51.046;6.980;2023-12-04T21:32:39;2.60;99.90
20504;DHT22;10410;51.046;6.980;2023-12-04T21:39:41;2.60;99.90
20504;DHT22;10410;51.046;6.980;2023-12-04T21:46:42;2.60;99.90
20504;DHT22;10410;51.046;6.980;2023-12-04T21:53:42;2.70;99.90
20504;DHT22;10410;51.046;6.980;2023-12-04T22:00:43;2.70;99.90
20504;DHT22;10410;51.046;6.980;2023-12-04T22:07:43;2.70;99.90
20504;DHT22;10410;51.046;6.980;2023-12-04T22:14:44;2.80;99.90
20504;DHT22;10410;51.046;6.980;2023-12-04T22:21:44;2.80;99.90
20504;DHT22;10410;51.046;6.980;2023-12-04T22:28:46;2.90;99.90
20504;DHT22;10410;51.046;6.980;2023-12-04T22:35:46;2.90;99.90
20504;DHT22;10410;51.046;6.980;2023-12-04T22:42:47;3.00;99.90
20504;DHT22;10410;51.046;6.980;2023-12-04T22:49:47;3.00;99.90
20504;DHT22;10410;51.046;6.980;2023-12-04T22:56:48;3.00;99.90
20504;DHT22;10410;51.046;6.980;2023-12-04T23:03:48;3.10;99.90
20504;DHT22;10410;51.046;6.980;2023-12-04T23:10:49;3.10;99.90
20504;DHT22;10410;51.046;6.980;2023-12-04T23:17:49;3.10;99.90
20504;DHT22;10410;51.046;6.980;2023-12-04T23:24:50;3.10;99.90
20504;DHT22;10410;51.046;6.980;2023-12-04T23:31:51;3.20;99.90
20504;DHT22;10410;51.046;6.980;2023-12-04T23:38:51;3.20;99.90
20504;DHT22;10410;51.046;6.980;2023-12-04T23:45:52;3.20;99.90
20504;DHT22;10410;51.046;6.980;2023-12-04T23:52:56;3.20;99.90
20504;DHT22;10410;51.046;6.980;2023-12-04T23:59:56;3.30;99.90
